sensor_id;sensor_type;location;lat;lon;timestamp;pressure;altitude;pressure_sealevel;temperature;humidity
5877;BME280;2964;42.144;24.730;2023-04-15T00:00:05;144505.88;;;11.76;98.44
5877;BME280;2964;42.144;24.730;2023-04-15T00:02:32;144571.34;;;12.03;97.56
5877;BME280;2964;42.144;24.730;2023-04-15T00:04:59;144558.75;;;11.98;97.57
5877;BME280;2964;42.144;24.730;2023-04-15T00:07:27;144568.81;;;12.02;96.87
5877;BME280;2964;42.144;24.730;2023-04-15T00:09:54;144552.47;;;11.95;97.75
5877;BME280;2964;42.144;24.730;2023-04-15T00:12:22;144539.91;;;11.90;97.90
5877;BME280;2964;42.144;24.730;2023-04-15T00:14:48;144503.38;;;11.75;98.67
5877;BME280;2964;42.144;24.730;2023-04-15T00:17:15;144528.50;;;11.86;98.79
5877;BME280;2964;42.144;24.730;2023-04-15T00:19:42;144494.59;;;11.72;98.21
5877;BME280;2964;42.144;24.730;2023-04-15T00:22:09;144543.69;;;11.92;98.23
5877;BME280;2964;42.144;24.730;2023-04-15T00:24:37;144518.47;;;11.82;97.83
5877;BME280;2964;42.144;24.730;2023-04-15T00:27:04;144566.31;;;12.01;96.91
5877;BME280;2964;42.144;24.730;2023-04-15T00:29:30;144578.91;;;12.06;95.63
5877;BME280;2964;42.144;24.730;2023-04-15T00:31:57;144548.69;;;11.94;96.63
5877;BME280;2964;42.144;24.730;2023-04-15T00:34:26;144549.94;;;11.94;96.42
5877;BME280;2964;42.144;24.730;2023-04-15T00:36:53;144531.03;;;11.87;97.22
5877;BME280;2964;42.144;24.730;2023-04-15T00:39:21;144434.25;;;11.47;98.57
5877;BME280;2964;42.144;24.730;2023-04-15T00:41:49;144439.28;;;11.49;99.23
5877;BME280;2964;42.144;24.730;2023-04-15T00:44:16;144411.63;;;11.38;99.91
5877;BME280;2964;42.144;24.730;2023-04-15T00:46:44;144415.38;;;11.39;99.98
5877;BME280;2964;42.144;24.730;2023-04-15T00:49:12;144400.31;;;11.33;100.00
5877;BME280;2964;42.144;24.730;2023-04-15T00:51:39;144425.47;;;11.44;100.00
5877;BME280;2964;42.144;24.730;2023-04-15T00:54:05;144411.63;;;11.38;100.00
5877;BME280;2964;42.144;24.730;2023-04-15T00:56:34;144406.56;;;11.36;100.00
5877;BME280;2964;42.144;24.730;2023-04-15T00:59:03;144508.41;;;11.77;98.39
5877;BME280;2964;42.144;24.730;2023-04-15T01:01:33;144508.41;;;11.77;97.02
5877;BME280;2964;42.144;24.730;2023-04-15T01:04:01;144458.13;;;11.57;97.55
5877;BME280;2964;42.144;24.730;2023-04-15T01:06:28;144499.59;;;11.74;98.09
5877;BME280;2964;42.144;24.730;2023-04-15T01:08:55;144465.69;;;11.60;97.60
5877;BME280;2964;42.144;24.730;2023-04-15T01:11:23;144449.34;;;11.53;97.94
5877;BME280;2964;42.144;24.730;2023-04-15T01:13:50;144399.06;;;11.33;98.20
5877;BME280;2964;42.144;24.730;2023-04-15T01:16:19;144292.22;;;10.89;98.99
5877;BME280;2964;42.144;24.730;2023-04-15T01:18:45;144345.03;;;11.11;98.83
5877;BME280;2964;42.144;24.730;2023-04-15T01:21:12;144317.38;;;10.99;98.41
5877;BME280;2964;42.144;24.730;2023-04-15T01:23:39;144274.63;;;10.82;98.00
5877;BME280;2964;42.144;24.730;2023-04-15T01:26:08;144357.59;;;11.16;96.57
5877;BME280;2964;42.144;24.730;2023-04-15T01:28:35;144294.75;;;10.90;97.36
5877;BME280;2964;42.144;24.730;2023-04-15T01:31:06;144334.97;;;11.07;95.42
5877;BME280;2964;42.144;24.730;2023-04-15T01:33:33;144150.31;;;10.31;96.30
5877;BME280;2964;42.144;24.730;2023-04-15T01:36:00;144314.84;;;10.98;96.07
5877;BME280;2964;42.144;24.730;2023-04-15T01:38:27;144345.03;;;11.11;96.23
5877;BME280;2964;42.144;24.730;2023-04-15T01:40:55;144383.94;;;11.27;95.09
5877;BME280;2964;42.144;24.730;2023-04-15T01:43:24;144282.19;;;10.85;93.58
5877;BME280;2964;42.144;24.730;2023-04-15T01:45:50;144298.50;;;10.92;95.80
5877;BME280;2964;42.144;24.730;2023-04-15T01:48:17;144229.41;;;10.63;96.64
5877;BME280;2964;42.144;24.730;2023-04-15T01:50:44;144252.03;;;10.73;95.45
5877;BME280;2964;42.144;24.730;2023-04-15T01:53:11;144249.53;;;10.72;95.13
5877;BME280;2964;42.144;24.730;2023-04-15T01:55:38;144160.34;;;10.35;96.79
5877;BME280;2964;42.144;24.730;2023-04-15T01:58:05;144176.66;;;10.42;97.65
5877;BME280;2964;42.144;24.730;2023-04-15T02:00:33;144244.53;;;10.70;95.31
5877;BME280;2964;42.144;24.730;2023-04-15T02:03:00;144293.47;;;10.90;94.48
5877;BME280;2964;42.144;24.730;2023-04-15T02:05:26;144297.25;;;10.91;92.82
5877;BME280;2964;42.144;24.730;2023-04-15T02:07:53;144209.34;;;10.55;93.04
5877;BME280;2964;42.144;24.730;2023-04-15T02:10:19;144140.19;;;10.27;94.54
5877;BME280;2964;42.144;24.730;2023-04-15T02:12:46;144201.78;;;10.52;93.45
5877;BME280;2964;42.144;24.730;2023-04-15T02:15:13;144156.56;;;10.34;94.60
5877;BME280;2964;42.144;24.730;2023-04-15T02:17:41;144116.34;;;10.17;95.14
5877;BME280;2964;42.144;24.730;2023-04-15T02:20:10;144120.13;;;10.19;95.23
5877;BME280;2964;42.144;24.730;2023-04-15T02:22:37;144213.13;;;10.57;92.57
5877;BME280;2964;42.144;24.730;2023-04-15T02:25:05;144201.78;;;10.52;92.11
5877;BME280;2964;42.144;24.730;2023-04-15T02:27:32;144155.31;;;10.33;92.40
5877;BME280;2964;42.144;24.730;2023-04-15T02:29:59;144242.00;;;10.69;90.93
5877;BME280;2964;42.144;24.730;2023-04-15T02:32:25;144165.38;;;10.37;91.33
5877;BME280;2964;42.144;24.730;2023-04-15T02:34:54;144091.25;;;10.07;92.35
5877;BME280;2964;42.144;24.730;2023-04-15T02:37:21;144108.78;;;10.14;92.52
5877;BME280;2964;42.144;24.730;2023-04-15T02:39:49;144108.78;;;10.14;92.26
5877;BME280;2964;42.144;24.730;2023-04-15T02:42:15;144079.94;;;10.02;93.00
5877;BME280;2964;42.144;24.730;2023-04-15T02:44:42;144091.25;;;10.07;93.21
5877;BME280;2964;42.144;24.730;2023-04-15T02:47:09;144140.19;;;10.27;92.01
5877;BME280;2964;42.144;24.730;2023-04-15T02:49:36;144156.56;;;10.34;91.39
5877;BME280;2964;42.144;24.730;2023-04-15T02:52:04;144151.56;;;10.32;90.95
5877;BME280;2964;42.144;24.730;2023-04-15T02:54:31;144130.16;;;10.23;90.91
5877;BME280;2964;42.144;24.730;2023-04-15T02:56:58;144182.94;;;10.45;89.58
5877;BME280;2964;42.144;24.730;2023-04-15T02:59:25;144269.63;;;10.80;87.40
5877;BME280;2964;42.144;24.730;2023-04-15T03:01:51;144157.81;;;10.34;89.85
5877;BME280;2964;42.144;24.730;2023-04-15T03:04:19;144252.03;;;10.73;88.47
5877;BME280;2964;42.144;24.730;2023-04-15T03:06:46;144274.63;;;10.82;88.10
5877;BME280;2964;42.144;24.730;2023-04-15T03:09:14;144210.59;;;10.56;88.89
5877;BME280;2964;42.144;24.730;2023-04-15T03:11:40;144259.56;;;10.76;88.20
5877;BME280;2964;42.144;24.730;2023-04-15T03:14:07;144133.91;;;10.24;88.40
5877;BME280;2964;42.144;24.730;2023-04-15T03:16:34;144236.97;;;10.67;87.58
5877;BME280;2964;42.144;24.730;2023-04-15T03:19:00;144107.53;;;10.14;88.72
5877;BME280;2964;42.144;24.730;2023-04-15T03:21:27;144086.19;;;10.05;89.50
5877;BME280;2964;42.144;24.730;2023-04-15T03:23:54;144113.84;;;10.16;88.76
5877;BME280;2964;42.144;24.730;2023-04-15T03:26:26;143949.38;;;9.49;91.64
5877;BME280;2964;42.144;24.730;2023-04-15T03:28:53;143907.97;;;9.32;92.52
5877;BME280;2964;42.144;24.730;2023-04-15T03:31:20;143887.88;;;9.24;93.68
5877;BME280;2964;42.144;24.730;2023-04-15T03:33:47;143924.31;;;9.39;93.58
5877;BME280;2964;42.144;24.730;2023-04-15T03:36:14;143869.06;;;9.16;94.36
5877;BME280;2964;42.144;24.730;2023-04-15T03:38:41;143959.41;;;9.53;93.67
5877;BME280;2964;42.144;24.730;2023-04-15T03:41:08;144010.91;;;9.74;92.55
5877;BME280;2964;42.144;24.730;2023-04-15T03:43:36;143998.34;;;9.69;92.48
5877;BME280;2964;42.144;24.730;2023-04-15T03:46:03;143924.31;;;9.39;93.28
5877;BME280;2964;42.144;24.730;2023-04-15T03:48:30;143867.81;;;9.16;94.66
5877;BME280;2964;42.144;24.730;2023-04-15T03:50:56;143906.75;;;9.32;94.18
5877;BME280;2964;42.144;24.730;2023-04-15T03:53:23;143786.28;;;8.82;95.07
5877;BME280;2964;42.144;24.730;2023-04-15T03:55:50;143905.44;;;9.31;94.10
5877;BME280;2964;42.144;24.730;2023-04-15T03:58:16;143862.81;;;9.14;95.22
5877;BME280;2964;42.144;24.730;2023-04-15T04:00:44;143902.97;;;9.30;94.04
5877;BME280;2964;42.144;24.730;2023-04-15T04:03:11;143817.66;;;8.95;94.95
5877;BME280;2964;42.144;24.730;2023-04-15T04:05:38;143976.97;;;9.60;91.38
5877;BME280;2964;42.144;24.730;2023-04-15T04:08:05;143810.09;;;8.92;93.68
5877;BME280;2964;42.144;24.730;2023-04-15T04:10:32;143849.00;;;9.08;94.24
5877;BME280;2964;42.144;24.730;2023-04-15T04:12:59;143849.00;;;9.08;94.41
5877;BME280;2964;42.144;24.730;2023-04-15T04:15:26;143933.03;;;9.42;93.16
5877;BME280;2964;42.144;24.730;2023-04-15T04:17:54;144003.34;;;9.71;90.30
5877;BME280;2964;42.144;24.730;2023-04-15T04:20:21;143946.91;;;9.48;90.73
5877;BME280;2964;42.144;24.730;2023-04-15T04:22:48;143928.03;;;9.40;90.17
5877;BME280;2964;42.144;24.730;2023-04-15T04:25:15;143940.59;;;9.45;90.17
5877;BME280;2964;42.144;24.730;2023-04-15T04:27:42;143879.13;;;9.20;91.74
5877;BME280;2964;42.144;24.730;2023-04-15T04:30:10;143810.09;;;8.92;93.06
5877;BME280;2964;42.144;24.730;2023-04-15T04:32:37;143772.50;;;8.77;94.22
5877;BME280;2964;42.144;24.730;2023-04-15T04:35:05;143831.44;;;9.01;94.29
5877;BME280;2964;42.144;24.730;2023-04-15T04:37:32;143815.13;;;8.94;93.29
5877;BME280;2964;42.144;24.730;2023-04-15T04:39:59;143904.22;;;9.31;92.71
5877;BME280;2964;42.144;24.730;2023-04-15T04:42:25;143926.78;;;9.40;92.34
5877;BME280;2964;42.144;24.730;2023-04-15T04:44:52;143902.97;;;9.30;91.80
5877;BME280;2964;42.144;24.730;2023-04-15T04:47:19;143963.19;;;9.55;91.38
5877;BME280;2964;42.144;24.730;2023-04-15T04:49:46;143944.38;;;9.47;91.70
5877;BME280;2964;42.144;24.730;2023-04-15T04:52:14;143965.72;;;9.56;90.90
5877;BME280;2964;42.144;24.730;2023-04-15T04:54:41;143935.56;;;9.43;91.40
5877;BME280;2964;42.144;24.730;2023-04-15T04:57:07;144005.88;;;9.72;91.12
5877;BME280;2964;42.144;24.730;2023-04-15T04:59:34;144008.38;;;9.73;89.29
5877;BME280;2964;42.144;24.730;2023-04-15T05:02:01;144023.47;;;9.79;88.12
5877;BME280;2964;42.144;24.730;2023-04-15T05:04:28;144155.31;;;10.33;87.27
5877;BME280;2964;42.144;24.730;2023-04-15T05:06:56;144229.41;;;10.63;84.98
5877;BME280;2964;42.144;24.730;2023-04-15T05:09:24;144278.41;;;10.84;82.91
5877;BME280;2964;42.144;24.730;2023-04-15T05:11:51;144591.44;;;12.11;79.03
5877;BME280;2964;42.144;24.730;2023-04-15T05:14:18;145072.28;;;14.07;72.13
5877;BME280;2964;42.144;24.730;2023-04-15T05:16:44;145185.66;;;14.54;71.27
5877;BME280;2964;42.144;24.730;2023-04-15T05:19:11;145518.56;;;15.89;64.53
5877;BME280;2964;42.144;24.730;2023-04-15T05:21:38;145604.34;;;16.24;62.10
5877;BME280;2964;42.144;24.730;2023-04-15T05:24:05;146032.38;;;17.98;57.68
5877;BME280;2964;42.144;24.730;2023-04-15T05:26:33;146238.41;;;18.82;54.99
5877;BME280;2964;42.144;24.730;2023-04-15T05:29:00;146173.94;;;18.56;53.78
5877;BME280;2964;42.144;24.730;2023-04-15T05:31:26;146104.38;;;18.27;53.92
5877;BME280;2964;42.144;24.730;2023-04-15T05:33:53;146047.56;;;18.04;54.61
5877;BME280;2964;42.144;24.730;2023-04-15T05:36:20;146234.56;;;18.80;53.07
5877;BME280;2964;42.144;24.730;2023-04-15T05:38:46;145994.44;;;17.83;54.73
5877;BME280;2964;42.144;24.730;2023-04-15T05:41:13;145888.38;;;17.40;55.13
5877;BME280;2964;42.144;24.730;2023-04-15T05:43:42;146287.72;;;19.02;52.69
5877;BME280;2964;42.144;24.730;2023-04-15T05:46:08;146094.28;;;18.23;53.47
5877;BME280;2964;42.144;24.730;2023-04-15T05:48:35;146200.44;;;18.66;53.03
5877;BME280;2964;42.144;24.730;2023-04-15T05:51:02;146610.28;;;20.33;50.27
5877;BME280;2964;42.144;24.730;2023-04-15T05:53:29;146590.03;;;20.24;50.13
5877;BME280;2964;42.144;24.730;2023-04-15T05:55:56;146560.94;;;20.13;50.65
5877;BME280;2964;42.144;24.730;2023-04-15T05:58:22;146774.88;;;20.99;48.33
5877;BME280;2964;42.144;24.730;2023-04-15T06:00:50;146468.56;;;19.75;49.58
5877;BME280;2964;42.144;24.730;2023-04-15T06:03:17;146839.44;;;21.26;48.24
5877;BME280;2964;42.144;24.730;2023-04-15T06:05:44;147167.59;;;22.59;44.59
5877;BME280;2964;42.144;24.730;2023-04-15T06:08:10;147374.28;;;23.42;42.56
5877;BME280;2964;42.144;24.730;2023-04-15T06:10:37;147190.41;;;22.68;44.33
5877;BME280;2964;42.144;24.730;2023-04-15T06:13:04;147224.66;;;22.82;44.08
5877;BME280;2964;42.144;24.730;2023-04-15T06:15:31;147089.06;;;22.27;43.51
5877;BME280;2964;42.144;24.730;2023-04-15T06:17:59;147588.72;;;24.29;41.14
5877;BME280;2964;42.144;24.730;2023-04-15T06:20:26;147930.25;;;25.67;36.77
5877;BME280;2964;42.144;24.730;2023-04-15T06:22:53;147851.53;;;25.35;35.79
5877;BME280;2964;42.144;24.730;2023-04-15T06:25:19;147845.19;;;25.33;36.22
5877;BME280;2964;42.144;24.730;2023-04-15T06:27:46;147305.81;;;23.15;40.68
5877;BME280;2964;42.144;24.730;2023-04-15T06:30:13;147626.78;;;24.44;38.94
5877;BME280;2964;42.144;24.730;2023-04-15T06:32:39;147908.69;;;25.58;38.01
5877;BME280;2964;42.144;24.730;2023-04-15T06:35:08;148180.59;;;26.68;35.26
5877;BME280;2964;42.144;24.730;2023-04-15T06:37:35;148089.06;;;26.31;36.10
5877;BME280;2964;42.144;24.730;2023-04-15T06:40:01;147819.72;;;25.22;38.72
5877;BME280;2964;42.144;24.730;2023-04-15T06:42:29;147411.09;;;23.57;41.18
5877;BME280;2964;42.144;24.730;2023-04-15T06:44:56;147388.25;;;23.48;41.82
5877;BME280;2964;42.144;24.730;2023-04-15T06:47:22;147652.19;;;24.55;42.30
5877;BME280;2964;42.144;24.730;2023-04-15T06:49:49;147616.63;;;24.40;42.49
5877;BME280;2964;42.144;24.730;2023-04-15T06:52:17;147511.34;;;23.98;42.60
5877;BME280;2964;42.144;24.730;2023-04-15T06:54:44;147771.53;;;25.03;41.25
5877;BME280;2964;42.144;24.730;2023-04-15T06:57:10;148138.63;;;26.51;38.00
5877;BME280;2964;42.144;24.730;2023-04-15T06:59:37;148085.25;;;26.30;38.10
5877;BME280;2964;42.144;24.730;2023-04-15T07:02:04;147672.50;;;24.63;43.44
5877;BME280;2964;42.144;24.730;2023-04-15T07:04:31;148288.66;;;27.12;38.23
5877;BME280;2964;42.144;24.730;2023-04-15T07:06:57;148043.34;;;26.13;40.97
5877;BME280;2964;42.144;24.730;2023-04-15T07:09:26;148420.91;;;27.65;37.07
5877;BME280;2964;42.144;24.730;2023-04-15T07:11:53;148342.09;;;27.33;38.43
5877;BME280;2964;42.144;24.730;2023-04-15T07:14:19;148052.25;;;26.16;40.86
5877;BME280;2964;42.144;24.730;2023-04-15T07:16:46;148365.00;;;27.43;39.03
5877;BME280;2964;42.144;24.730;2023-04-15T07:19:13;148414.53;;;27.63;37.85
5877;BME280;2964;42.144;24.730;2023-04-15T07:21:40;148406.94;;;27.60;37.13
5877;BME280;2964;42.144;24.730;2023-04-15T07:24:06;148385.31;;;27.51;38.57
5877;BME280;2964;42.144;24.730;2023-04-15T07:26:36;147989.94;;;25.91;40.12
5877;BME280;2964;42.144;24.730;2023-04-15T07:29:02;148279.75;;;27.08;39.64
5877;BME280;2964;42.144;24.730;2023-04-15T07:31:29;148791.25;;;29.15;36.39
5877;BME280;2964;42.144;24.730;2023-04-15T07:33:55;148731.41;;;28.91;35.04
5877;BME280;2964;42.144;24.730;2023-04-15T07:36:22;147962.00;;;25.80;41.04
5877;BME280;2964;42.144;24.730;2023-04-15T07:38:49;148076.34;;;26.26;39.57
5877;BME280;2964;42.144;24.730;2023-04-15T07:41:16;147510.03;;;23.97;44.13
5877;BME280;2964;42.144;24.730;2023-04-15T07:43:44;147851.53;;;25.35;41.99
5877;BME280;2964;42.144;24.730;2023-04-15T07:46:11;148618.09;;;28.45;36.39
5877;BME280;2964;42.144;24.730;2023-04-15T07:48:38;148676.69;;;28.68;35.04
5877;BME280;2964;42.144;24.730;2023-04-15T07:51:05;148200.97;;;26.76;36.78
5877;BME280;2964;42.144;24.730;2023-04-15T07:53:32;148506.13;;;28.00;35.81
5877;BME280;2964;42.144;24.730;2023-04-15T07:55:59;148503.63;;;27.99;34.18
5877;BME280;2964;42.144;24.730;2023-04-15T07:58:26;148288.66;;;27.12;36.60
5877;BME280;2964;42.144;24.730;2023-04-15T08:00:54;148104.34;;;26.37;38.78
5877;BME280;2964;42.144;24.730;2023-04-15T08:03:21;148265.78;;;27.03;38.20
5877;BME280;2964;42.144;24.730;2023-04-15T08:05:48;147856.59;;;25.37;38.42
5877;BME280;2964;42.144;24.730;2023-04-15T08:08:14;147753.75;;;24.96;39.40
5877;BME280;2964;42.144;24.730;2023-04-15T08:10:41;148604.09;;;28.39;34.95
5877;BME280;2964;42.144;24.730;2023-04-15T08:13:08;148991.13;;;29.95;31.83
5877;BME280;2964;42.144;24.730;2023-04-15T08:15:34;149198.81;;;30.79;30.35
5877;BME280;2964;42.144;24.730;2023-04-15T08:18:02;149145.28;;;30.57;30.20
5877;BME280;2964;42.144;24.730;2023-04-15T08:20:29;148842.16;;;29.35;31.32
5877;BME280;2964;42.144;24.730;2023-04-15T08:22:56;148597.72;;;28.37;32.51
5877;BME280;2964;42.144;24.730;2023-04-15T08:25:23;149048.47;;;30.18;31.12
5877;BME280;2964;42.144;24.730;2023-04-15T08:27:49;148699.59;;;28.78;32.16
5877;BME280;2964;42.144;24.730;2023-04-15T08:30:16;148492.16;;;27.94;34.17
5877;BME280;2964;42.144;24.730;2023-04-15T08:32:44;148707.19;;;28.81;32.69
5877;BME280;2964;42.144;24.730;2023-04-15T08:35:13;148582.47;;;28.30;32.08
5877;BME280;2964;42.144;24.730;2023-04-15T08:37:40;148546.84;;;28.16;32.88
5877;BME280;2964;42.144;24.730;2023-04-15T08:40:08;148452.72;;;27.78;33.04
5877;BME280;2964;42.144;24.730;2023-04-15T08:42:37;148259.38;;;27.00;32.78
5877;BME280;2964;42.144;24.730;2023-04-15T08:45:08;148643.63;;;28.55;31.13
5877;BME280;2964;42.144;24.730;2023-04-15T08:47:36;148765.72;;;29.04;30.93
5877;BME280;2964;42.144;24.730;2023-04-15T08:50:04;148773.38;;;29.07;29.50
5877;BME280;2964;42.144;24.730;2023-04-15T08:52:36;148320.44;;;27.25;31.35
5877;BME280;2964;42.144;24.730;2023-04-15T08:55:03;148898.16;;;29.58;30.66
5877;BME280;2964;42.144;24.730;2023-04-15T08:57:32;148889.25;;;29.54;29.59
5877;BME280;2964;42.144;24.730;2023-04-15T09:00:00;148529.03;;;28.09;29.85
5877;BME280;2964;42.144;24.730;2023-04-15T09:02:31;148880.34;;;29.51;29.47
5877;BME280;2964;42.144;24.730;2023-04-15T09:04:58;149359.41;;;31.44;24.94
5877;BME280;2964;42.144;24.730;2023-04-15T09:07:25;148728.84;;;28.90;28.64
5877;BME280;2964;42.144;24.730;2023-04-15T09:09:53;149151.69;;;30.60;26.35
5877;BME280;2964;42.144;24.730;2023-04-15T09:12:20;148802.69;;;29.19;26.86
5877;BME280;2964;42.144;24.730;2023-04-15T09:14:47;148970.78;;;29.87;27.54
5877;BME280;2964;42.144;24.730;2023-04-15T09:17:18;149118.53;;;30.47;27.27
5877;BME280;2964;42.144;24.730;2023-04-15T09:19:45;148959.34;;;29.82;28.05
5877;BME280;2964;42.144;24.730;2023-04-15T09:22:12;148938.94;;;29.74;28.04
5877;BME280;2964;42.144;24.730;2023-04-15T09:24:39;148440.00;;;27.73;30.46
5877;BME280;2964;42.144;24.730;2023-04-15T09:27:09;148546.84;;;28.16;30.28
5877;BME280;2964;42.144;24.730;2023-04-15T09:29:35;148455.22;;;27.79;30.08
5877;BME280;2964;42.144;24.730;2023-04-15T09:32:09;148165.38;;;26.62;31.36
5877;BME280;2964;42.144;24.730;2023-04-15T09:34:36;147950.59;;;25.75;32.73
5877;BME280;2964;42.144;24.730;2023-04-15T09:37:03;147992.53;;;25.92;32.04
5877;BME280;2964;42.144;24.730;2023-04-15T09:39:44;147960.75;;;25.79;33.09
5877;BME280;2964;42.144;24.730;2023-04-15T09:42:14;147921.34;;;25.63;33.36
5877;BME280;2964;42.144;24.730;2023-04-15T09:44:41;148136.06;;;26.50;32.95
5877;BME280;2964;42.144;24.730;2023-04-15T09:47:08;147871.88;;;25.43;34.01
5877;BME280;2964;42.144;24.730;2023-04-15T09:49:35;148134.81;;;26.50;33.49
5877;BME280;2964;42.144;24.730;2023-04-15T09:52:02;147996.34;;;25.94;33.00
5877;BME280;2964;42.144;24.730;2023-04-15T09:54:34;148218.75;;;26.84;31.63
5877;BME280;2964;42.144;24.730;2023-04-15T09:57:05;147827.41;;;25.26;33.97
5877;BME280;2964;42.144;24.730;2023-04-15T09:59:33;148006.50;;;25.98;34.15
5877;BME280;2964;42.144;24.730;2023-04-15T10:02:03;147888.34;;;25.50;34.12
5877;BME280;2964;42.144;24.730;2023-04-15T10:04:32;147413.59;;;23.58;37.21
5877;BME280;2964;42.144;24.730;2023-04-15T10:07:02;147494.84;;;23.91;36.40
5877;BME280;2964;42.144;24.730;2023-04-15T10:09:30;147400.91;;;23.53;36.76
5877;BME280;2964;42.144;24.730;2023-04-15T10:11:57;147373.00;;;23.42;38.43
5877;BME280;2964;42.144;24.730;2023-04-15T10:14:27;147281.72;;;23.05;40.27
5877;BME280;2964;42.144;24.730;2023-04-15T10:16:57;146906.59;;;21.53;39.91
5877;BME280;2964;42.144;24.730;2023-04-15T10:19:27;146730.53;;;20.81;39.97
5877;BME280;2964;42.144;24.730;2023-04-15T10:21:57;146839.44;;;21.26;39.47
5877;BME280;2964;42.144;24.730;2023-04-15T10:24:24;146822.94;;;21.19;39.80
5877;BME280;2964;42.144;24.730;2023-04-15T10:26:51;146735.59;;;20.83;38.35
5877;BME280;2964;42.144;24.730;2023-04-15T10:29:19;146673.56;;;20.58;37.65
5877;BME280;2964;42.144;24.730;2023-04-15T10:31:47;146698.91;;;20.69;37.43
5877;BME280;2964;42.144;24.730;2023-04-15T10:34:16;146592.56;;;20.25;37.01
5877;BME280;2964;42.144;24.730;2023-04-15T10:36:44;146747.03;;;20.88;36.25
5877;BME280;2964;42.144;24.730;2023-04-15T10:39:38;146721.69;;;20.78;39.42
5877;BME280;2964;42.144;24.730;2023-04-15T10:42:06;146619.16;;;20.36;41.42
5877;BME280;2964;42.144;24.730;2023-04-15T10:44:35;146590.03;;;20.24;40.90
5877;BME280;2964;42.144;24.730;2023-04-15T10:47:06;146412.88;;;19.53;43.66
5877;BME280;2964;42.144;24.730;2023-04-15T10:49:42;146549.53;;;20.08;42.45
5877;BME280;2964;42.144;24.730;2023-04-15T10:52:10;146491.31;;;19.84;43.29
5877;BME280;2964;42.144;24.730;2023-04-15T10:54:37;146601.44;;;20.29;44.32
5877;BME280;2964;42.144;24.730;2023-04-15T10:57:09;146547.03;;;20.07;46.99
5877;BME280;2964;42.144;24.730;2023-04-15T11:00:10;146660.91;;;20.53;46.11
5877;BME280;2964;42.144;24.730;2023-04-15T11:02:41;146640.63;;;20.45;47.39
5877;BME280;2964;42.144;24.730;2023-04-15T11:05:10;146610.28;;;20.33;45.06
5877;BME280;2964;42.144;24.730;2023-04-15T11:07:40;146592.56;;;20.25;46.11
5877;BME280;2964;42.144;24.730;2023-04-15T11:13:21;146539.41;;;20.04;46.44
5877;BME280;2964;42.144;24.730;2023-04-15T11:15:50;146376.22;;;19.38;45.41
5877;BME280;2964;42.144;24.730;2023-04-15T11:18:18;146452.09;;;19.68;45.04
5877;BME280;2964;42.144;24.730;2023-04-15T11:20:48;146407.81;;;19.51;46.86
5877;BME280;2964;42.144;24.730;2023-04-15T11:23:17;146433.13;;;19.61;47.36
5877;BME280;2964;42.144;24.730;2023-04-15T11:25:44;146369.91;;;19.35;46.17
5877;BME280;2964;42.144;24.730;2023-04-15T11:28:12;146380.00;;;19.39;46.78
5877;BME280;2964;42.144;24.730;2023-04-15T11:30:41;146460.97;;;19.72;46.82
5877;BME280;2964;42.144;24.730;2023-04-15T11:33:09;146431.84;;;19.60;46.98
5877;BME280;2964;42.144;24.730;2023-04-15T11:35:39;146501.47;;;19.89;47.47
5877;BME280;2964;42.144;24.730;2023-04-15T11:38:09;146511.59;;;19.93;48.11
5877;BME280;2964;42.144;24.730;2023-04-15T11:40:37;146474.91;;;19.78;47.99
5877;BME280;2964;42.144;24.730;2023-04-15T11:43:05;146509.03;;;19.92;46.99
5877;BME280;2964;42.144;24.730;2023-04-15T11:45:33;146506.53;;;19.91;46.54
5877;BME280;2964;42.144;24.730;2023-04-15T11:48:09;146558.38;;;20.12;45.88
5877;BME280;2964;42.144;24.730;2023-04-15T11:50:38;146557.13;;;20.11;46.78
5877;BME280;2964;42.144;24.730;2023-04-15T11:53:08;146442.00;;;19.64;46.52
5877;BME280;2964;42.144;24.730;2023-04-15T11:55:42;146559.69;;;20.12;47.26
5877;BME280;2964;42.144;24.730;2023-04-15T11:58:13;146557.13;;;20.11;47.11
5877;BME280;2964;42.144;24.730;2023-04-15T12:00:42;146560.94;;;20.13;47.27
5877;BME280;2964;42.144;24.730;2023-04-15T12:03:22;146564.75;;;20.14;47.55
5877;BME280;2964;42.144;24.730;2023-04-15T12:06:06;146545.72;;;20.06;47.74
5877;BME280;2964;42.144;24.730;2023-04-15T12:08:59;146541.97;;;20.05;47.81
5877;BME280;2964;42.144;24.730;2023-04-15T12:11:28;146554.59;;;20.10;47.93
5877;BME280;2964;42.144;24.730;2023-04-15T12:13:56;146539.41;;;20.04;47.08
5877;BME280;2964;42.144;24.730;2023-04-15T12:16:24;146549.53;;;20.08;46.83
5877;BME280;2964;42.144;24.730;2023-04-15T12:18:52;146498.94;;;19.88;47.14
5877;BME280;2964;42.144;24.730;2023-04-15T12:21:21;146586.22;;;20.23;46.60
5877;BME280;2964;42.144;24.730;2023-04-15T12:23:48;146597.63;;;20.28;46.81
5877;BME280;2964;42.144;24.730;2023-04-15T12:26:17;146614.03;;;20.34;46.55
5877;BME280;2964;42.144;24.730;2023-04-15T12:28:44;146598.88;;;20.28;46.50
5877;BME280;2964;42.144;24.730;2023-04-15T12:31:11;146664.72;;;20.55;46.55
5877;BME280;2964;42.144;24.730;2023-04-15T12:33:38;146617.84;;;20.36;47.94
5877;BME280;2964;42.144;24.730;2023-04-15T12:36:05;146620.41;;;20.37;48.45
5877;BME280;2964;42.144;24.730;2023-04-15T12:38:32;146622.91;;;20.38;48.50
5877;BME280;2964;42.144;24.730;2023-04-15T12:40:59;146671.00;;;20.57;48.13
5877;BME280;2964;42.144;24.730;2023-04-15T12:43:27;146635.56;;;20.43;48.30
5877;BME280;2964;42.144;24.730;2023-04-15T12:45:54;146648.22;;;20.48;48.88
5877;BME280;2964;42.144;24.730;2023-04-15T12:48:21;146581.16;;;20.21;49.21
5877;BME280;2964;42.144;24.730;2023-04-15T12:50:47;146592.56;;;20.25;49.66
5877;BME280;2964;42.144;24.730;2023-04-15T12:53:14;146573.59;;;20.18;50.24
5877;BME280;2964;42.144;24.730;2023-04-15T12:55:41;146631.78;;;20.41;49.88
5877;BME280;2964;42.144;24.730;2023-04-15T12:58:07;146643.19;;;20.46;49.10
5877;BME280;2964;42.144;24.730;2023-04-15T13:00:37;146667.22;;;20.56;49.24
5877;BME280;2964;42.144;24.730;2023-04-15T13:03:04;146566.00;;;20.15;49.95
5877;BME280;2964;42.144;24.730;2023-04-15T13:05:31;146559.69;;;20.12;51.00
5877;BME280;2964;42.144;24.730;2023-04-15T13:07:57;146582.47;;;20.21;50.93